Terminal Aerodrome Forecast
Issued by NWS

Home | Current Version | Previous Version | Graphics & Text | Print | Product List | Glossary On
Versions: 1 2 3 4 5 6 7 8 9 10 11 12 13 14 15 16 17 18 19
000
FTUS43 KABR 162322
TAFATY
TAF
KATY 162322Z 1700/1724 15018KT P6SM BKN200
     FM170900 18012KT P6SM BKN200
     FM171100 19008KT P6SM BKN200
     FM171300 16004KT P6SM BKN100
     FM171600 02005KT P6SM OVC060
     FM171800 36009KT P6SM OVC070=

USA.gov is the U.S. government's official web portal to all federal, state and local government web resources and services.